DW3219 Weather Reports


Display with metric or nautical units.
time (UTC)temp
F
wind
direction
speed
MPH
gust
MPH
rain 1hr
in
rain 24hr
in
rain mn
in
humidity
%
barometer
mb
20220814093042 64 209 0.0 0.0 0.00 0.00 0.00 80 1009.7
20220814091520 65 209 0.0 0.0 0.00 0.00 0.00 77 1009.7
20220814090026 66 209 0.0 0.0 0.00 0.00 0.00 77 1009.7
20220814084530 66 209 0.0 0.0 0.00 0.00 0.00 76 1009.6
20220814083041 65 209 0.0 0.0 0.00 0.00 0.00 77 1009.6
20220814081618 66 209 0.0 0.0 0.00 0.00 0.00 77 1009.7
20220814080101 66 209 0.0 0.0 0.00 0.00 0.00 76 1009.6
20220814074616 67 209 0.0 0.0 0.00 0.00 0.00 75 1009.7
20220814073050 67 208 0.0 0.0 0.00 0.00 0.00 74 1009.8
20220814071545 67 208 0.0 3.0 0.00 0.00 0.00 73 1009.7
20220814070104 67 12 0.0 4.0 0.00 0.00 0.00 74 1009.7
20220814064615 68 134 0.0 0.0 0.00 0.00 0.00 73 1009.7
20220814063053 68 261 0.0 0.0 0.00 0.00 0.00 72 1009.8
20220814061601 69 261 0.0 0.0 0.00 0.00 0.00 70 1010.0
20220814060034 70 304 0.0 3.0 0.00 0.00 0.00 67 1009.8
20220814054555 70 205 2.0 4.0 0.00 0.00 0.00 66 1009.6
20220814053013 71 205 1.0 4.0 0.00 0.00 0.00 65 1009.6
20220814051532 71 267 0.0 0.0 0.00 0.00 0.00 65 1009.7
20220814050105 71 268 0.0 7.0 0.00 0.00 0.00 65 1009.9
20220814044550 72 247 0.0 5.0 0.00 0.00 0.00 63 1010.1
20220814043032 72 238 0.0 4.0 0.00 0.00 0.00 62 1010.0
20220814041539 72 298 0.0 0.0 0.00 0.00 0.00 62 1009.8
20220814040019 72 61 0.0 8.0 0.00 0.00 0.00 62 1010.1
20220814034518 72 5 3.0 12.0 0.00 0.00 0.00 60 1010.1
20220814033047 72 9 1.0 7.0 0.00 0.00 0.00 60 1010.6
20220814031518 72 46 0.0 13.0 0.00 0.00 0.00 59 1010.8
20220814030020 72 18 0.0 3.0 0.00 0.00 0.00 61 1010.8
20220814024515 72 53 1.0 13.0 0.00 0.00 0.00 62 1011.0
20220814023016 72 32 0.0 7.0 0.00 0.00 0.00 62 1010.5
20220814021528 73 98 0.0 7.0 0.00 0.00 0.00 62 1010.5
20220814020102 74 50 1.0 5.0 0.00 0.00 0.00 61 1009.8
20220814014605 76 56 0.0 12.0 0.00 0.00 0.00 52 1009.6
20220814013049 76 350 0.0 6.0 0.00 0.00 0.00 51 1009.6
20220814011555 76 360 6.0 21.0 0.00 0.00 0.00 52 1009.4
20220814010045 75 324 11.0 28.0 0.00 0.00 0.00 53 1009.2
20220814004543 75 336 13.0 28.0 0.00 0.00 0.00 51 1008.9
20220814003045 75 300 17.0 36.0 0.00 0.00 0.00 50 1008.2
20220814001552 76 330 16.0 34.0 0.00 0.00 0.00 50 1008.5
20220814000032 77 299 15.0 33.0 0.00 0.00 0.00 51 1008.1
20220813234537 79 317 19.0 31.0 0.00 0.00 0.00 44 1007.7
20220813233103 87 311 10.0 24.0 0.00 0.00 0.00 36 1007.8
20220813231537 89 346 0.0 3.0 0.00 0.00 0.00 34 1006.8
20220813230028 89 306 0.0 0.0 0.00 0.00 0.00 36 1006.6
20220813224536 88 306 0.0 0.0 0.00 0.00 0.00 36 1006.6
20220813223033 89 314 0.0 0.0 0.00 0.00 0.00 34 1006.8
20220813221544 89 329 0.0 0.0 0.00 0.00 0.00 34 1006.9
20220813220040 89 360 0.0 0.0 0.00 0.00 0.00 31 1006.9
20220813214521 89 14 0.0 3.0 0.00 0.00 0.00 35 1006.9
20220813213028 90 18 0.0 1.0 0.00 0.00 0.00 32 1006.9
20220813211522 90 30 0.0 4.0 0.00 0.00 0.00 31 1007.0
20220813210027 92 52 0.0 0.0 0.00 0.00 0.00 29 1007.0
20220813204508 92 40 0.0 2.0 0.00 0.00 0.00 28 1007.1
20220813203012 92 42 0.0 0.0 0.00 0.00 0.00 26 1007.1
20220813201503 91 82 0.0 5.0 0.00 0.00 0.00 29 1007.4
20220813200050 90 101 0.0 4.0 0.00 0.00 0.00 31 1007.6
20220813194557 89 29 0.0 3.0 0.00 0.00 0.00 32 1008.0
20220813193100 89 157 0.0 5.0 0.00 0.00 0.00 30 1008.3
20220813191546 88 165 0.0 4.0 0.00 0.00 0.00 31 1008.7
20220813190107 88 194 0.0 5.0 0.00 0.00 0.00 33 1008.9
20220813184559 88 193 0.0 4.0 0.00 0.00 0.00 33 1009.2
20220813183039 87 131 0.0 7.0 0.00 0.00 0.00 34 1009.4
20220813181544 86 133 0.0 7.0 0.00 0.00 0.00 35 1009.6
20220813180025 85 111 1.0 7.0 0.00 0.00 0.00 37 1009.7
20220813174528 83 168 0.0 6.0 0.00 0.00 0.00 40 1009.9
20220813173027 81 51 0.0 3.0 0.00 0.00 0.00 47 1010.1
20220813171527 81 55 0.0 2.0 0.00 0.00 0.00 48 1010.2
20220813170025 80 70 0.0 0.0 0.00 0.00 0.00 51 1010.3
20220813164522 79 90 0.0 0.0 0.00 0.00 0.00 50 1010.5
20220813163031 79 42 0.0 0.0 0.00 0.00 0.00 49 1010.7
20220813161534 78 36 0.0 0.0 0.00 0.00 0.00 52 1010.8
20220813160010 76 86 0.0 0.0 0.00 0.00 0.00 53 1010.9
20220813154532 75 49 0.0 0.0 0.00 0.00 0.00 55 1011.0
20220813153008 75 48 0.0 0.0 0.00 0.00 0.00 58 1011.1
20220813151510 75 117 0.0 0.0 0.00 0.00 0.00 58 1011.0
20220813150009 73 297 0.0 0.0 0.00 0.00 0.00 59 1011.2
20220813144531 71 288 0.0 0.0 0.00 0.00 0.00 65 1011.3
20220813143005 69 270 0.0 0.0 0.00 0.00 0.00 69 1011.2
20220813141505 67 270 0.0 0.0 0.00 0.00 0.00 72 1011.3
20220813140101 67 270 0.0 0.0 0.00 0.00 0.00 75 1011.2
20220813134602 66 271 0.0 0.0 0.00 0.00 0.00 75 1011.1
20220813133141 66 256 0.0 0.0 0.00 0.00 0.00 75 1011.1
20220813131618 64 298 0.0 0.0 0.00 0.00 0.00 77 1010.9
20220813130049 63 298 0.0 0.0 0.00 0.00 0.00 79 1010.9
20220813124557 63 298 0.0 0.0 0.00 0.00 0.00 80 1010.9
20220813123115 63 298 0.0 0.0 0.00 0.00 0.00 80 1011.0
20220813121547 63 298 0.0 0.0 0.00 0.00 0.00 79 1010.8
20220813120048 63 309 0.0 0.0 0.00 0.00 0.00 79 1010.6
20220813114535 63 311 0.0 0.0 0.00 0.00 0.00 79 1010.5
20220813113047 63 313 0.0 0.0 0.00 0.00 0.00 79 1010.5
20220813111540 63 355 0.0 0.0 0.00 0.00 0.00 78 1010.8
20220813110029 64 17 0.0 0.0 0.00 0.00 0.00 76 1010.9
20220813104538 64 234 0.0 0.0 0.00 0.00 0.00 75 1010.7
20220813103028 64 234 0.0 0.0 0.00 0.00 0.00 76 1010.9
20220813101526 65 227 0.0 0.0 0.00 0.00 0.00 75 1010.8
20220813100012 65 276 0.0 0.0 0.00 0.00 0.00 74 1010.7
20220813094511 67 277 0.0 0.0 0.00 0.00 0.00 70 1010.4